KCAV

Clarion Municipal Airport

Clarion, Iowa, USA
METAR KCAV 181955Z AUTO 24019KT 10SM CLR 07/01 A2979 RMK AO2 PWINO
Observed Flight Rules
Dec-18 @ 19:55 UTC (29 minutes ago) Visual Flight Rules
Wind Visibility Clouds
240° at 19 knots 10 miles
  • Clear skies
Temperatures Readings
Current 7°C / 45°F
Dewpoint 1°C / 34°F
Humidity 66%
Altimeter 29.79" Hg
Pressure 1009 hPa
Elevation 354
METAR KCAV 181955Z AUTO 24019KT 10SM CLR 07/01 A2979 RMK AO2 PWINO
Observed Flight Rules
Dec-18 @ 19:55 UTC
(29 minutes ago)
VFR
Wind Visibility
240° at 19 knots 10 miles
Clouds
  • Clear skies
Temperature Dewpoint
7°C / 45°F 1°C / 34°F
Humidity Altimeter Pressure
66% 29.79" Hg 1009 hPa